Aeroporto :
LOGIN :

Iscrizione | Disclaimer

   EN    FR    IT 

 










Sommario :    VFR   VFR Marginale   IFR   IFR Intensivo   IFR Molto Intensivo
Visibilità : 
Base nubi : 
>= 8 km
>= 3000ft
5 / 8 km
1000 / 3000 ft
1500m / 5 km
500 / 1000 ft
800 / 1500m
200 / 500 ft
< 800m
< 200 ft
Simboli :   Temporali  Nebbia  Neve Forte  Precipitazioni Forti  Vento > 20 kt
SIGMETs :   Varie  Temporali  Ghiacco  Turbolenza  Onda orograficha  Ceneri Vulcaniche






- Altitudine del aeroporto : 2776 ft
- Codice IATA : VLL


LEVD - Valladolid

ULTIMO METAR :
  • 170930Z 24010KT 5000 -RA OVC003 05/05 Q1012

METARs OBSOLETI :
  • 170900Z 23010KT 3000 BR OVC002 04/04 Q1012
  • 170852Z 23010KT 3000 BR OVC002 04/04 Q1012
  • 170830Z 23009KT 0900 R23/1600U R05/1700U FG OVC001 04/04 Q1012
  • 170800Z 23011KT 1100 R23/P2000 R05/P2000 BR OVC001 04/04 Q1012
  • 170730Z 23011KT 3000 BR OVC002 04/03 Q1012
  • 170719Z 23011KT 4000 BR OVC003 04/04 Q1012
  • 170700Z 23009KT 9999 OVC004 04/03 Q1012

TAF TAF LEVD
Valido dal 17 a 06 ore il 18 a 06 ore UTC


170500Z 1706/1806 23008KT 9999 BKN035 TX09/1714Z TN01/1706Z
TEMPO 1710/1721 27015G25KT
BECMG 1719/1721 29010KT
PROB40
TEMPO 1706/1715 3000 BR BKN004
PROB30
TEMPO 1706/1713 0100 FG VV001
PROB40
TEMPO 1706/1721 4900 RA BKN014
TEMPO 1723/1806 3000 BR BKN004
PROB30
TEMPO 1800/1806 0100 FG VV001



MetMap, La meteo Aeronautica in un colpo d'occhio ! - Copyright ORBIFLY Dicembre 2007 - Disclaimer

ORBIFLY MET'MAP TEAM :

Programmazione e sviluppo : Alexandra Zaïnal
Concezione e sviluppo : Baudouin d'Aumeries
Co-Programmazione e sviluppo : Marc-Olivier Méhu
Supporto tecnico e logistico : Manuel Goepfert
Aiuto per la traduzione : Arnaldo La Scala

Contatto : metmap@orbifly.com




FONTI E CREDITI :

   NOAA